sensor_id;sensor_type;location;lat;lon;timestamp;P1;durP1;ratioP1;P2;durP2;ratioP2
66112;SDS011;52893;52.870;5.822;2023-09-19T00:00:19;6.82;;;1.17;;
66112;SDS011;52893;52.870;5.822;2023-09-19T00:02:51;2.17;;;0.47;;
66112;SDS011;52893;52.870;5.822;2023-09-19T00:05:19;5.40;;;1.30;;
66112;SDS011;52893;52.870;5.822;2023-09-19T00:07:50;7.10;;;1.05;;
66112;SDS011;52893;52.870;5.822;2023-09-19T00:10:20;10.73;;;1.27;;
66112;SDS011;52893;52.870;5.822;2023-09-19T00:12:50;1.88;;;0.57;;
66112;SDS011;52893;52.870;5.822;2023-09-19T00:15:18;3.63;;;0.98;;
66112;SDS011;52893;52.870;5.822;2023-09-19T00:17:46;8.63;;;1.23;;
66112;SDS011;52893;52.870;5.822;2023-09-19T00:20:13;7.90;;;2.20;;
66112;SDS011;52893;52.870;5.822;2023-09-19T00:22:42;2.55;;;1.05;;
66112;SDS011;52893;52.870;5.822;2023-09-19T00:25:10;4.85;;;1.15;;
66112;SDS011;52893;52.870;5.822;2023-09-19T00:27:38;2.55;;;0.80;;
66112;SDS011;52893;52.870;5.822;2023-09-19T00:30:09;6.70;;;1.10;;
66112;SDS011;52893;52.870;5.822;2023-09-19T00:35:07;7.38;;;1.60;;
66112;SDS011;52893;52.870;5.822;2023-09-19T00:37:36;1.50;;;0.60;;
66112;SDS011;52893;52.870;5.822;2023-09-19T00:40:05;2.30;;;0.73;;
66112;SDS011;52893;52.870;5.822;2023-09-19T00:42:38;2.90;;;0.77;;
66112;SDS011;52893;52.870;5.822;2023-09-19T00:45:06;1.30;;;0.43;;
66112;SDS011;52893;52.870;5.822;2023-09-19T00:47:37;5.22;;;1.33;;
66112;SDS011;52893;52.870;5.822;2023-09-19T00:50:07;3.00;;;0.82;;
66112;SDS011;52893;52.870;5.822;2023-09-19T00:52:36;5.20;;;0.68;;
66112;SDS011;52893;52.870;5.822;2023-09-19T00:55:06;1.83;;;0.60;;
66112;SDS011;52893;52.870;5.822;2023-09-19T00:57:34;5.28;;;0.40;;
66112;SDS011;52893;52.870;5.822;2023-09-19T01:00:03;5.25;;;0.57;;
66112;SDS011;52893;52.870;5.822;2023-09-19T01:02:34;2.28;;;0.43;;
66112;SDS011;52893;52.870;5.822;2023-09-19T01:05:03;2.22;;;0.95;;
66112;SDS011;52893;52.870;5.822;2023-09-19T01:07:32;5.75;;;1.27;;
66112;SDS011;52893;52.870;5.822;2023-09-19T01:10:00;5.43;;;0.50;;
66112;SDS011;52893;52.870;5.822;2023-09-19T01:12:33;3.58;;;0.90;;
66112;SDS011;52893;52.870;5.822;2023-09-19T01:15:15;6.45;;;1.75;;
66112;SDS011;52893;52.870;5.822;2023-09-19T01:17:51;6.65;;;1.00;;
66112;SDS011;52893;52.870;5.822;2023-09-19T01:20:34;5.95;;;1.02;;
66112;SDS011;52893;52.870;5.822;2023-09-19T01:23:10;2.45;;;0.70;;
66112;SDS011;52893;52.870;5.822;2023-09-19T01:25:44;4.35;;;1.33;;
66112;SDS011;52893;52.870;5.822;2023-09-19T01:28:32;2.70;;;0.57;;
66112;SDS011;52893;52.870;5.822;2023-09-19T01:31:09;4.18;;;1.13;;
66112;SDS011;52893;52.870;5.822;2023-09-19T01:33:53;5.40;;;1.35;;
66112;SDS011;52893;52.870;5.822;2023-09-19T01:36:25;3.13;;;0.82;;
66112;SDS011;52893;52.870;5.822;2023-09-19T01:38:54;5.40;;;0.88;;
66112;SDS011;52893;52.870;5.822;2023-09-19T01:41:26;3.90;;;1.00;;
66112;SDS011;52893;52.870;5.822;2023-09-19T01:44:17;0.88;;;0.40;;
66112;SDS011;52893;52.870;5.822;2023-09-19T01:46:50;0.75;;;0.30;;
66112;SDS011;52893;52.870;5.822;2023-09-19T01:49:22;3.42;;;1.13;;
66112;SDS011;52893;52.870;5.822;2023-09-19T01:52:00;3.47;;;1.00;;
66112;SDS011;52893;52.870;5.822;2023-09-19T01:54:34;6.47;;;1.80;;
66112;SDS011;52893;52.870;5.822;2023-09-19T01:57:09;6.43;;;1.40;;
66112;SDS011;52893;52.870;5.822;2023-09-19T01:59:43;7.85;;;1.30;;
66112;SDS011;52893;52.870;5.822;2023-09-19T02:02:16;6.07;;;1.00;;
66112;SDS011;52893;52.870;5.822;2023-09-19T02:04:44;2.88;;;0.68;;
66112;SDS011;52893;52.870;5.822;2023-09-19T02:07:11;2.50;;;1.08;;
66112;SDS011;52893;52.870;5.822;2023-09-19T02:09:41;4.72;;;0.40;;
66112;SDS011;52893;52.870;5.822;2023-09-19T02:12:08;6.35;;;1.33;;
66112;SDS011;52893;52.870;5.822;2023-09-19T02:14:36;8.75;;;1.05;;
66112;SDS011;52893;52.870;5.822;2023-09-19T02:17:03;5.68;;;1.25;;
66112;SDS011;52893;52.870;5.822;2023-09-19T02:19:34;7.28;;;1.33;;
66112;SDS011;52893;52.870;5.822;2023-09-19T02:22:02;6.50;;;1.27;;
66112;SDS011;52893;52.870;5.822;2023-09-19T02:24:33;2.13;;;0.40;;
66112;SDS011;52893;52.870;5.822;2023-09-19T02:27:00;5.07;;;0.52;;
66112;SDS011;52893;52.870;5.822;2023-09-19T02:29:31;2.20;;;1.00;;
66112;SDS011;52893;52.870;5.822;2023-09-19T02:32:00;3.00;;;0.98;;
66112;SDS011;52893;52.870;5.822;2023-09-19T02:34:28;3.08;;;0.63;;
66112;SDS011;52893;52.870;5.822;2023-09-19T02:36:57;1.77;;;0.40;;
66112;SDS011;52893;52.870;5.822;2023-09-19T02:39:24;4.60;;;0.95;;
66112;SDS011;52893;52.870;5.822;2023-09-19T02:41:51;4.70;;;1.15;;
66112;SDS011;52893;52.870;5.822;2023-09-19T02:44:19;7.82;;;0.80;;
66112;SDS011;52893;52.870;5.822;2023-09-19T02:46:46;3.20;;;0.70;;
66112;SDS011;52893;52.870;5.822;2023-09-19T02:49:14;3.13;;;0.80;;
66112;SDS011;52893;52.870;5.822;2023-09-19T02:51:42;5.05;;;1.25;;
66112;SDS011;52893;52.870;5.822;2023-09-19T02:54:11;5.97;;;1.20;;
66112;SDS011;52893;52.870;5.822;2023-09-19T02:56:38;7.38;;;1.45;;
66112;SDS011;52893;52.870;5.822;2023-09-19T02:59:06;4.78;;;0.90;;
66112;SDS011;52893;52.870;5.822;2023-09-19T03:01:36;5.60;;;1.20;;
66112;SDS011;52893;52.870;5.822;2023-09-19T03:04:04;7.70;;;1.42;;
66112;SDS011;52893;52.870;5.822;2023-09-19T03:06:32;9.35;;;1.52;;
66112;SDS011;52893;52.870;5.822;2023-09-19T03:09:00;7.10;;;1.13;;
66112;SDS011;52893;52.870;5.822;2023-09-19T03:11:30;7.20;;;1.60;;
66112;SDS011;52893;52.870;5.822;2023-09-19T03:13:57;3.05;;;0.68;;
66112;SDS011;52893;52.870;5.822;2023-09-19T03:16:25;2.83;;;0.57;;
66112;SDS011;52893;52.870;5.822;2023-09-19T03:18:55;6.20;;;0.70;;
66112;SDS011;52893;52.870;5.822;2023-09-19T03:21:24;4.32;;;1.27;;
66112;SDS011;52893;52.870;5.822;2023-09-19T03:23:51;1.83;;;0.70;;
66112;SDS011;52893;52.870;5.822;2023-09-19T03:26:19;5.03;;;1.25;;
66112;SDS011;52893;52.870;5.822;2023-09-19T03:28:48;3.15;;;0.38;;
66112;SDS011;52893;52.870;5.822;2023-09-19T03:31:16;2.55;;;0.75;;
66112;SDS011;52893;52.870;5.822;2023-09-19T03:33:43;6.22;;;0.88;;
66112;SDS011;52893;52.870;5.822;2023-09-19T03:36:10;1.05;;;0.47;;
66112;SDS011;52893;52.870;5.822;2023-09-19T03:38:40;11.82;;;1.30;;
66112;SDS011;52893;52.870;5.822;2023-09-19T03:41:07;8.43;;;1.40;;
66112;SDS011;52893;52.870;5.822;2023-09-19T03:43:36;5.85;;;0.65;;
66112;SDS011;52893;52.870;5.822;2023-09-19T03:46:05;12.88;;;1.42;;
66112;SDS011;52893;52.870;5.822;2023-09-19T03:48:34;8.38;;;1.05;;
66112;SDS011;52893;52.870;5.822;2023-09-19T03:51:02;2.83;;;0.90;;
66112;SDS011;52893;52.870;5.822;2023-09-19T03:53:31;8.15;;;1.27;;
66112;SDS011;52893;52.870;5.822;2023-09-19T03:55:58;12.80;;;1.65;;
66112;SDS011;52893;52.870;5.822;2023-09-19T03:58:25;10.27;;;1.48;;
66112;SDS011;52893;52.870;5.822;2023-09-19T04:00:54;2.63;;;0.90;;
66112;SDS011;52893;52.870;5.822;2023-09-19T04:03:23;8.43;;;1.67;;
66112;SDS011;52893;52.870;5.822;2023-09-19T04:06:00;8.43;;;2.30;;
66112;SDS011;52893;52.870;5.822;2023-09-19T04:08:28;12.05;;;1.58;;
66112;SDS011;52893;52.870;5.822;2023-09-19T04:10:55;7.25;;;1.50;;
66112;SDS011;52893;52.870;5.822;2023-09-19T04:13:22;7.63;;;1.40;;
66112;SDS011;52893;52.870;5.822;2023-09-19T04:15:49;4.15;;;1.05;;
66112;SDS011;52893;52.870;5.822;2023-09-19T04:18:18;4.55;;;1.50;;
66112;SDS011;52893;52.870;5.822;2023-09-19T04:20:48;3.60;;;0.60;;
66112;SDS011;52893;52.870;5.822;2023-09-19T04:23:16;4.57;;;0.68;;
66112;SDS011;52893;52.870;5.822;2023-09-19T04:25:44;4.55;;;1.50;;
66112;SDS011;52893;52.870;5.822;2023-09-19T04:28:12;8.25;;;1.35;;
66112;SDS011;52893;52.870;5.822;2023-09-19T04:30:39;4.22;;;1.50;;
66112;SDS011;52893;52.870;5.822;2023-09-19T04:33:07;9.90;;;1.70;;
66112;SDS011;52893;52.870;5.822;2023-09-19T04:35:35;7.18;;;0.98;;
66112;SDS011;52893;52.870;5.822;2023-09-19T04:38:06;2.47;;;0.93;;
66112;SDS011;52893;52.870;5.822;2023-09-19T04:40:33;8.73;;;1.42;;
66112;SDS011;52893;52.870;5.822;2023-09-19T04:43:00;8.18;;;1.42;;
66112;SDS011;52893;52.870;5.822;2023-09-19T04:45:28;9.65;;;1.83;;
66112;SDS011;52893;52.870;5.822;2023-09-19T04:47:56;2.50;;;1.02;;
66112;SDS011;52893;52.870;5.822;2023-09-19T04:50:23;7.43;;;1.25;;
66112;SDS011;52893;52.870;5.822;2023-09-19T04:52:53;5.35;;;1.20;;
66112;SDS011;52893;52.870;5.822;2023-09-19T04:55:22;11.82;;;1.70;;
66112;SDS011;52893;52.870;5.822;2023-09-19T04:57:49;0.88;;;0.47;;
66112;SDS011;52893;52.870;5.822;2023-09-19T05:00:19;9.23;;;1.75;;
66112;SDS011;52893;52.870;5.822;2023-09-19T05:02:49;5.22;;;1.30;;
66112;SDS011;52893;52.870;5.822;2023-09-19T05:05:17;11.02;;;1.92;;
66112;SDS011;52893;52.870;5.822;2023-09-19T05:07:45;2.28;;;0.98;;
66112;SDS011;52893;52.870;5.822;2023-09-19T05:10:12;12.90;;;1.83;;
66112;SDS011;52893;52.870;5.822;2023-09-19T05:12:41;11.65;;;2.08;;
66112;SDS011;52893;52.870;5.822;2023-09-19T05:15:10;9.68;;;1.85;;
66112;SDS011;52893;52.870;5.822;2023-09-19T05:17:38;9.18;;;1.73;;
66112;SDS011;52893;52.870;5.822;2023-09-19T05:20:06;5.28;;;0.95;;
66112;SDS011;52893;52.870;5.822;2023-09-19T05:22:46;6.70;;;1.15;;
66112;SDS011;52893;52.870;5.822;2023-09-19T05:25:14;6.30;;;1.42;;
66112;SDS011;52893;52.870;5.822;2023-09-19T05:27:43;7.25;;;1.67;;
66112;SDS011;52893;52.870;5.822;2023-09-19T05:30:11;4.03;;;0.90;;
66112;SDS011;52893;52.870;5.822;2023-09-19T05:32:40;3.60;;;1.25;;
66112;SDS011;52893;52.870;5.822;2023-09-19T05:35:07;11.63;;;2.10;;
66112;SDS011;52893;52.870;5.822;2023-09-19T05:37:35;1.70;;;0.65;;
66112;SDS011;52893;52.870;5.822;2023-09-19T05:40:03;10.82;;;1.98;;
66112;SDS011;52893;52.870;5.822;2023-09-19T05:42:36;2.83;;;0.63;;
66112;SDS011;52893;52.870;5.822;2023-09-19T05:45:07;5.70;;;1.25;;
66112;SDS011;52893;52.870;5.822;2023-09-19T05:47:37;2.22;;;0.85;;
66112;SDS011;52893;52.870;5.822;2023-09-19T05:50:06;8.30;;;1.10;;
66112;SDS011;52893;52.870;5.822;2023-09-19T05:52:34;5.55;;;1.23;;
66112;SDS011;52893;52.870;5.822;2023-09-19T05:55:03;4.15;;;1.30;;
66112;SDS011;52893;52.870;5.822;2023-09-19T05:57:33;3.67;;;0.70;;
66112;SDS011;52893;52.870;5.822;2023-09-19T06:00:00;4.78;;;0.73;;
66112;SDS011;52893;52.870;5.822;2023-09-19T06:02:39;4.25;;;0.90;;
66112;SDS011;52893;52.870;5.822;2023-09-19T06:05:07;3.78;;;0.70;;
66112;SDS011;52893;52.870;5.822;2023-09-19T06:07:36;3.80;;;0.85;;
66112;SDS011;52893;52.870;5.822;2023-09-19T06:10:03;5.00;;;1.13;;
66112;SDS011;52893;52.870;5.822;2023-09-19T06:12:32;1.88;;;0.60;;
66112;SDS011;52893;52.870;5.822;2023-09-19T06:15:03;2.17;;;0.65;;
66112;SDS011;52893;52.870;5.822;2023-09-19T06:17:32;4.20;;;0.98;;
66112;SDS011;52893;52.870;5.822;2023-09-19T06:20:02;3.15;;;1.10;;
66112;SDS011;52893;52.870;5.822;2023-09-19T06:22:36;5.28;;;0.98;;
66112;SDS011;52893;52.870;5.822;2023-09-19T06:25:04;8.93;;;1.90;;
66112;SDS011;52893;52.870;5.822;2023-09-19T06:27:31;5.10;;;0.95;;
66112;SDS011;52893;52.870;5.822;2023-09-19T06:29:58;4.68;;;1.13;;
66112;SDS011;52893;52.870;5.822;2023-09-19T06:32:27;12.75;;;1.55;;
66112;SDS011;52893;52.870;5.822;2023-09-19T06:34:54;5.43;;;1.33;;
66112;SDS011;52893;52.870;5.822;2023-09-19T06:37:27;6.20;;;1.13;;
66112;SDS011;52893;52.870;5.822;2023-09-19T06:39:55;9.63;;;1.98;;
66112;SDS011;52893;52.870;5.822;2023-09-19T06:42:22;7.63;;;1.30;;
66112;SDS011;52893;52.870;5.822;2023-09-19T06:44:51;5.35;;;1.10;;
66112;SDS011;52893;52.870;5.822;2023-09-19T06:47:18;2.20;;;0.80;;
66112;SDS011;52893;52.870;5.822;2023-09-19T06:49:46;11.48;;;2.25;;
66112;SDS011;52893;52.870;5.822;2023-09-19T06:52:13;1.42;;;0.85;;
66112;SDS011;52893;52.870;5.822;2023-09-19T06:54:42;5.60;;;1.25;;
66112;SDS011;52893;52.870;5.822;2023-09-19T06:57:10;5.57;;;0.80;;
66112;SDS011;52893;52.870;5.822;2023-09-19T06:59:37;7.13;;;1.10;;
66112;SDS011;52893;52.870;5.822;2023-09-19T07:02:04;8.60;;;1.65;;
66112;SDS011;52893;52.870;5.822;2023-09-19T07:04:32;4.07;;;1.25;;
66112;SDS011;52893;52.870;5.822;2023-09-19T07:06:59;6.90;;;1.35;;
66112;SDS011;52893;52.870;5.822;2023-09-19T07:09:27;7.03;;;1.25;;
66112;SDS011;52893;52.870;5.822;2023-09-19T07:11:55;3.50;;;0.73;;
66112;SDS011;52893;52.870;5.822;2023-09-19T07:14:23;2.95;;;0.52;;
66112;SDS011;52893;52.870;5.822;2023-09-19T07:16:50;4.20;;;0.57;;
66112;SDS011;52893;52.870;5.822;2023-09-19T07:19:17;11.77;;;1.42;;
66112;SDS011;52893;52.870;5.822;2023-09-19T07:21:45;7.63;;;1.40;;
66112;SDS011;52893;52.870;5.822;2023-09-19T07:24:13;10.77;;;2.33;;
66112;SDS011;52893;52.870;5.822;2023-09-19T07:26:40;9.38;;;1.98;;
66112;SDS011;52893;52.870;5.822;2023-09-19T07:29:09;7.22;;;1.80;;
66112;SDS011;52893;52.870;5.822;2023-09-19T07:31:36;12.50;;;1.90;;
66112;SDS011;52893;52.870;5.822;2023-09-19T07:34:04;7.25;;;1.50;;
66112;SDS011;52893;52.870;5.822;2023-09-19T07:36:33;3.42;;;1.02;;
66112;SDS011;52893;52.870;5.822;2023-09-19T07:39:03;1.67;;;0.63;;
66112;SDS011;52893;52.870;5.822;2023-09-19T07:41:32;4.63;;;1.52;;
66112;SDS011;52893;52.870;5.822;2023-09-19T07:43:59;5.68;;;1.02;;
66112;SDS011;52893;52.870;5.822;2023-09-19T07:46:28;1.08;;;0.68;;
66112;SDS011;52893;52.870;5.822;2023-09-19T07:48:57;5.60;;;0.50;;
66112;SDS011;52893;52.870;5.822;2023-09-19T07:51:24;3.53;;;1.08;;
66112;SDS011;52893;52.870;5.822;2023-09-19T07:53:52;6.95;;;1.85;;
66112;SDS011;52893;52.870;5.822;2023-09-19T07:56:20;3.22;;;0.68;;
66112;SDS011;52893;52.870;5.822;2023-09-19T07:58:48;5.80;;;0.68;;
66112;SDS011;52893;52.870;5.822;2023-09-19T08:01:16;8.57;;;1.70;;
66112;SDS011;52893;52.870;5.822;2023-09-19T08:03:44;2.00;;;1.10;;
66112;SDS011;52893;52.870;5.822;2023-09-19T08:06:11;4.55;;;1.15;;
66112;SDS011;52893;52.870;5.822;2023-09-19T08:08:43;7.03;;;1.63;;
66112;SDS011;52893;52.870;5.822;2023-09-19T08:11:10;11.80;;;2.13;;
66112;SDS011;52893;52.870;5.822;2023-09-19T08:13:38;7.75;;;1.60;;
66112;SDS011;52893;52.870;5.822;2023-09-19T08:16:09;10.40;;;1.95;;
66112;SDS011;52893;52.870;5.822;2023-09-19T08:18:36;6.13;;;1.17;;
66112;SDS011;52893;52.870;5.822;2023-09-19T08:21:07;7.03;;;1.52;;
66112;SDS011;52893;52.870;5.822;2023-09-19T08:23:36;7.15;;;1.63;;
66112;SDS011;52893;52.870;5.822;2023-09-19T08:26:04;14.82;;;2.88;;
66112;SDS011;52893;52.870;5.822;2023-09-19T08:28:33;10.27;;;1.98;;
66112;SDS011;52893;52.870;5.822;2023-09-19T08:31:01;8.30;;;2.00;;
66112;SDS011;52893;52.870;5.822;2023-09-19T08:33:31;12.45;;;3.15;;
66112;SDS011;52893;52.870;5.822;2023-09-19T08:35:58;17.50;;;3.40;;
66112;SDS011;52893;52.870;5.822;2023-09-19T08:38:27;6.95;;;1.45;;
66112;SDS011;52893;52.870;5.822;2023-09-19T08:40:57;13.60;;;3.60;;
66112;SDS011;52893;52.870;5.822;2023-09-19T08:43:25;13.25;;;2.70;;
66112;SDS011;52893;52.870;5.822;2023-09-19T08:45:54;16.98;;;3.15;;
66112;SDS011;52893;52.870;5.822;2023-09-19T08:48:29;14.05;;;3.42;;
66112;SDS011;52893;52.870;5.822;2023-09-19T08:50:58;9.35;;;2.40;;
66112;SDS011;52893;52.870;5.822;2023-09-19T08:53:34;11.35;;;2.38;;
66112;SDS011;52893;52.870;5.822;2023-09-19T08:56:08;13.10;;;2.90;;
66112;SDS011;52893;52.870;5.822;2023-09-19T08:58:39;10.50;;;2.15;;
66112;SDS011;52893;52.870;5.822;2023-09-19T09:01:13;11.70;;;2.75;;
66112;SDS011;52893;52.870;5.822;2023-09-19T09:03:42;18.80;;;3.95;;
66112;SDS011;52893;52.870;5.822;2023-09-19T09:06:13;14.75;;;2.58;;
66112;SDS011;52893;52.870;5.822;2023-09-19T09:08:45;11.40;;;2.60;;
66112;SDS011;52893;52.870;5.822;2023-09-19T09:11:13;11.82;;;2.83;;
66112;SDS011;52893;52.870;5.822;2023-09-19T09:13:42;14.90;;;3.30;;
66112;SDS011;52893;52.870;5.822;2023-09-19T09:16:10;13.48;;;3.08;;
66112;SDS011;52893;52.870;5.822;2023-09-19T09:18:38;9.95;;;2.22;;
66112;SDS011;52893;52.870;5.822;2023-09-19T09:21:06;17.67;;;3.63;;
66112;SDS011;52893;52.870;5.822;2023-09-19T09:23:33;15.50;;;3.33;;
66112;SDS011;52893;52.870;5.822;2023-09-19T09:26:02;12.23;;;2.83;;
66112;SDS011;52893;52.870;5.822;2023-09-19T09:28:32;14.48;;;3.67;;
66112;SDS011;52893;52.870;5.822;2023-09-19T09:31:01;14.68;;;2.65;;
66112;SDS011;52893;52.870;5.822;2023-09-19T09:36:01;13.60;;;2.67;;
66112;SDS011;52893;52.870;5.822;2023-09-19T09:38:43;13.82;;;3.47;;
66112;SDS011;52893;52.870;5.822;2023-09-19T09:41:13;11.07;;;2.55;;
66112;SDS011;52893;52.870;5.822;2023-09-19T09:43:53;16.30;;;3.08;;
66112;SDS011;52893;52.870;5.822;2023-09-19T09:46:20;10.40;;;3.22;;
66112;SDS011;52893;52.870;5.822;2023-09-19T09:49:05;14.73;;;3.28;;
66112;SDS011;52893;52.870;5.822;2023-09-19T09:51:45;12.85;;;2.67;;
66112;SDS011;52893;52.870;5.822;2023-09-19T09:54:23;16.38;;;2.92;;
66112;SDS011;52893;52.870;5.822;2023-09-19T09:56:55;15.60;;;3.28;;
66112;SDS011;52893;52.870;5.822;2023-09-19T09:59:44;15.52;;;3.58;;
66112;SDS011;52893;52.870;5.822;2023-09-19T10:02:17;11.20;;;3.10;;
66112;SDS011;52893;52.870;5.822;2023-09-19T10:04:51;6.43;;;2.15;;
66112;SDS011;52893;52.870;5.822;2023-09-19T10:07:28;13.02;;;3.30;;
66112;SDS011;52893;52.870;5.822;2023-09-19T10:09:58;16.27;;;3.40;;
66112;SDS011;52893;52.870;5.822;2023-09-19T10:12:37;12.52;;;2.80;;
66112;SDS011;52893;52.870;5.822;2023-09-19T10:15:09;13.55;;;3.13;;
66112;SDS011;52893;52.870;5.822;2023-09-19T10:17:41;17.50;;;4.07;;
66112;SDS011;52893;52.870;5.822;2023-09-19T10:20:11;15.07;;;3.00;;
66112;SDS011;52893;52.870;5.822;2023-09-19T10:22:59;15.23;;;2.72;;
66112;SDS011;52893;52.870;5.822;2023-09-19T10:25:27;16.90;;;3.55;;
66112;SDS011;52893;52.870;5.822;2023-09-19T10:27:57;14.00;;;3.38;;
66112;SDS011;52893;52.870;5.822;2023-09-19T10:30:29;16.17;;;3.78;;
66112;SDS011;52893;52.870;5.822;2023-09-19T10:33:00;15.63;;;3.33;;
66112;SDS011;52893;52.870;5.822;2023-09-19T10:35:31;20.05;;;2.97;;
66112;SDS011;52893;52.870;5.822;2023-09-19T10:38:00;11.30;;;3.30;;
66112;SDS011;52893;52.870;5.822;2023-09-19T10:40:28;14.07;;;2.88;;
66112;SDS011;52893;52.870;5.822;2023-09-19T10:43:01;15.45;;;3.65;;
66112;SDS011;52893;52.870;5.822;2023-09-19T10:45:32;11.38;;;3.53;;
66112;SDS011;52893;52.870;5.822;2023-09-19T10:48:01;13.73;;;3.13;;
66112;SDS011;52893;52.870;5.822;2023-09-19T10:50:29;19.88;;;4.10;;
66112;SDS011;52893;52.870;5.822;2023-09-19T10:53:01;11.63;;;2.47;;
66112;SDS011;52893;52.870;5.822;2023-09-19T10:55:32;10.05;;;2.20;;
66112;SDS011;52893;52.870;5.822;2023-09-19T10:58:02;15.32;;;3.50;;
66112;SDS011;52893;52.870;5.822;2023-09-19T11:00:53;16.90;;;4.38;;
66112;SDS011;52893;52.870;5.822;2023-09-19T11:03:21;16.00;;;3.75;;
66112;SDS011;52893;52.870;5.822;2023-09-19T11:06:01;14.07;;;2.55;;
66112;SDS011;52893;52.870;5.822;2023-09-19T11:08:51;13.48;;;3.15;;
66112;SDS011;52893;52.870;5.822;2023-09-19T11:11:41;15.88;;;2.88;;
66112;SDS011;52893;52.870;5.822;2023-09-19T11:14:29;7.50;;;2.63;;
66112;SDS011;52893;52.870;5.822;2023-09-19T11:23:20;18.73;;;3.78;;
66112;SDS011;52893;52.870;5.822;2023-09-19T11:25:56;16.25;;;3.38;;
66112;SDS011;52893;52.870;5.822;2023-09-19T11:28:30;13.27;;;3.10;;
66112;SDS011;52893;52.870;5.822;2023-09-19T11:30:59;12.07;;;1.55;;
66112;SDS011;52893;52.870;5.822;2023-09-19T11:40:37;10.65;;;3.05;;
66112;SDS011;52893;52.870;5.822;2023-09-19T11:46:09;10.50;;;3.08;;
66112;SDS011;52893;52.870;5.822;2023-09-19T11:48:40;13.77;;;2.25;;
66112;SDS011;52893;52.870;5.822;2023-09-19T11:53:41;14.75;;;2.67;;
66112;SDS011;52893;52.870;5.822;2023-09-19T11:56:10;9.65;;;2.70;;
66112;SDS011;52893;52.870;5.822;2023-09-19T11:58:37;9.07;;;2.60;;
66112;SDS011;52893;52.870;5.822;2023-09-19T12:01:09;9.50;;;2.15;;
66112;SDS011;52893;52.870;5.822;2023-09-19T12:03:46;9.25;;;2.40;;
66112;SDS011;52893;52.870;5.822;2023-09-19T12:06:18;12.90;;;2.42;;
66112;SDS011;52893;52.870;5.822;2023-09-19T12:08:47;12.93;;;2.13;;
66112;SDS011;52893;52.870;5.822;2023-09-19T12:11:16;12.32;;;2.30;;
66112;SDS011;52893;52.870;5.822;2023-09-19T12:13:43;9.68;;;2.10;;
66112;SDS011;52893;52.870;5.822;2023-09-19T12:16:14;7.90;;;2.13;;
66112;SDS011;52893;52.870;5.822;2023-09-19T12:18:44;10.65;;;2.40;;
66112;SDS011;52893;52.870;5.822;2023-09-19T12:21:22;14.77;;;2.75;;
66112;SDS011;52893;52.870;5.822;2023-09-19T12:23:59;7.85;;;2.50;;
66112;SDS011;52893;52.870;5.822;2023-09-19T12:26:39;8.05;;;2.05;;
66112;SDS011;52893;52.870;5.822;2023-09-19T12:29:12;10.52;;;2.55;;
66112;SDS011;52893;52.870;5.822;2023-09-19T12:31:52;9.93;;;2.80;;
66112;SDS011;52893;52.870;5.822;2023-09-19T12:34:23;10.43;;;2.37;;
66112;SDS011;52893;52.870;5.822;2023-09-19T12:37:05;10.82;;;2.10;;
66112;SDS011;52893;52.870;5.822;2023-09-19T12:39:41;11.18;;;2.25;;
66112;SDS011;52893;52.870;5.822;2023-09-19T12:42:10;9.60;;;2.47;;
66112;SDS011;52893;52.870;5.822;2023-09-19T12:44:40;8.10;;;2.42;;
66112;SDS011;52893;52.870;5.822;2023-09-19T12:47:11;10.82;;;2.17;;
66112;SDS011;52893;52.870;5.822;2023-09-19T12:52:39;9.73;;;2.20;;
66112;SDS011;52893;52.870;5.822;2023-09-19T12:55:07;10.07;;;2.38;;
66112;SDS011;52893;52.870;5.822;2023-09-19T12:57:36;8.60;;;2.05;;
66112;SDS011;52893;52.870;5.822;2023-09-19T13:00:05;8.20;;;2.38;;
66112;SDS011;52893;52.870;5.822;2023-09-19T13:02:38;13.02;;;2.53;;
66112;SDS011;52893;52.870;5.822;2023-09-19T13:05:47;15.68;;;2.55;;
66112;SDS011;52893;52.870;5.822;2023-09-19T13:08:19;10.65;;;2.10;;
66112;SDS011;52893;52.870;5.822;2023-09-19T13:11:02;13.05;;;2.45;;
66112;SDS011;52893;52.870;5.822;2023-09-19T13:13:36;11.25;;;2.53;;
66112;SDS011;52893;52.870;5.822;2023-09-19T13:16:04;8.88;;;2.38;;
66112;SDS011;52893;52.870;5.822;2023-09-19T13:18:45;8.73;;;2.40;;
66112;SDS011;52893;52.870;5.822;2023-09-19T13:21:16;8.98;;;2.20;;
66112;SDS011;52893;52.870;5.822;2023-09-19T13:23:51;7.25;;;1.70;;
66112;SDS011;52893;52.870;5.822;2023-09-19T13:26:20;11.77;;;2.28;;
66112;SDS011;52893;52.870;5.822;2023-09-19T13:28:48;9.63;;;2.20;;
66112;SDS011;52893;52.870;5.822;2023-09-19T13:31:16;8.60;;;1.67;;
66112;SDS011;52893;52.870;5.822;2023-09-19T13:33:45;3.95;;;1.38;;
66112;SDS011;52893;52.870;5.822;2023-09-19T13:36:14;10.00;;;1.70;;
66112;SDS011;52893;52.870;5.822;2023-09-19T13:38:44;9.75;;;2.13;;
66112;SDS011;52893;52.870;5.822;2023-09-19T13:41:14;8.18;;;2.08;;
66112;SDS011;52893;52.870;5.822;2023-09-19T13:43:42;10.48;;;2.40;;
66112;SDS011;52893;52.870;5.822;2023-09-19T13:46:13;8.63;;;2.00;;
66112;SDS011;52893;52.870;5.822;2023-09-19T13:48:42;7.85;;;1.80;;
66112;SDS011;52893;52.870;5.822;2023-09-19T13:51:10;9.75;;;2.13;;
66112;SDS011;52893;52.870;5.822;2023-09-19T13:53:37;10.15;;;2.00;;
66112;SDS011;52893;52.870;5.822;2023-09-19T13:56:05;9.80;;;1.92;;
66112;SDS011;52893;52.870;5.822;2023-09-19T13:58:32;8.63;;;2.05;;
66112;SDS011;52893;52.870;5.822;2023-09-19T14:01:00;5.90;;;1.80;;
66112;SDS011;52893;52.870;5.822;2023-09-19T14:03:27;9.75;;;2.47;;
66112;SDS011;52893;52.870;5.822;2023-09-19T14:05:55;5.68;;;1.38;;
66112;SDS011;52893;52.870;5.822;2023-09-19T14:08:23;7.40;;;1.92;;
66112;SDS011;52893;52.870;5.822;2023-09-19T14:10:51;8.15;;;2.17;;
66112;SDS011;52893;52.870;5.822;2023-09-19T14:13:19;11.30;;;1.92;;
66112;SDS011;52893;52.870;5.822;2023-09-19T14:15:46;5.93;;;1.88;;
66112;SDS011;52893;52.870;5.822;2023-09-19T14:18:14;5.82;;;1.95;;
66112;SDS011;52893;52.870;5.822;2023-09-19T14:20:41;9.25;;;2.40;;
66112;SDS011;52893;52.870;5.822;2023-09-19T14:23:08;7.75;;;2.00;;
66112;SDS011;52893;52.870;5.822;2023-09-19T14:25:37;10.10;;;2.00;;
66112;SDS011;52893;52.870;5.822;2023-09-19T14:28:04;10.90;;;2.10;;
66112;SDS011;52893;52.870;5.822;2023-09-19T14:30:33;10.60;;;2.35;;
66112;SDS011;52893;52.870;5.822;2023-09-19T14:33:03;7.57;;;2.00;;
66112;SDS011;52893;52.870;5.822;2023-09-19T14:35:30;10.88;;;2.25;;
66112;SDS011;52893;52.870;5.822;2023-09-19T14:37:57;7.18;;;2.13;;
66112;SDS011;52893;52.870;5.822;2023-09-19T14:40:25;11.23;;;2.28;;
66112;SDS011;52893;52.870;5.822;2023-09-19T14:42:54;8.88;;;2.45;;
66112;SDS011;52893;52.870;5.822;2023-09-19T14:45:21;9.55;;;2.50;;
66112;SDS011;52893;52.870;5.822;2023-09-19T14:47:50;11.75;;;2.63;;
66112;SDS011;52893;52.870;5.822;2023-09-19T14:50:18;11.27;;;2.55;;
66112;SDS011;52893;52.870;5.822;2023-09-19T14:52:45;11.77;;;2.20;;
66112;SDS011;52893;52.870;5.822;2023-09-19T14:55:12;11.25;;;2.08;;
66112;SDS011;52893;52.870;5.822;2023-09-19T14:57:40;8.70;;;1.70;;
66112;SDS011;52893;52.870;5.822;2023-09-19T15:00:14;10.00;;;2.50;;
66112;SDS011;52893;52.870;5.822;2023-09-19T15:02:42;11.13;;;2.28;;
66112;SDS011;52893;52.870;5.822;2023-09-19T15:05:11;6.45;;;1.60;;
66112;SDS011;52893;52.870;5.822;2023-09-19T15:07:39;8.48;;;2.25;;
66112;SDS011;52893;52.870;5.822;2023-09-19T15:10:06;4.75;;;1.85;;
66112;SDS011;52893;52.870;5.822;2023-09-19T15:12:35;3.80;;;1.33;;
66112;SDS011;52893;52.870;5.822;2023-09-19T15:15:03;11.00;;;2.28;;
66112;SDS011;52893;52.870;5.822;2023-09-19T15:17:35;8.38;;;1.88;;
66112;SDS011;52893;52.870;5.822;2023-09-19T15:20:02;6.90;;;1.90;;
66112;SDS011;52893;52.870;5.822;2023-09-19T15:22:32;5.95;;;1.85;;
66112;SDS011;52893;52.870;5.822;2023-09-19T15:25:00;11.35;;;2.25;;
66112;SDS011;52893;52.870;5.822;2023-09-19T15:27:27;6.72;;;2.30;;